sensor_id;sensor_type;location;lat;lon;timestamp;P1;durP1;ratioP1;P2;durP2;ratioP2
8171;SDS011;4127;47.908;10.850;2023-01-29T00:01:47;19.37;;;13.67;;
8171;SDS011;4127;47.908;10.850;2023-01-29T00:04:14;18.50;;;14.27;;
8171;SDS011;4127;47.908;10.850;2023-01-29T00:06:41;20.70;;;14.63;;
8171;SDS011;4127;47.908;10.850;2023-01-29T00:09:09;17.17;;;12.53;;
8171;SDS011;4127;47.908;10.850;2023-01-29T00:11:36;21.63;;;14.90;;
8171;SDS011;4127;47.908;10.850;2023-01-29T00:14:03;19.77;;;14.27;;
8171;SDS011;4127;47.908;10.850;2023-01-29T00:16:30;20.60;;;15.20;;
8171;SDS011;4127;47.908;10.850;2023-01-29T00:18:57;21.77;;;14.60;;
8171;SDS011;4127;47.908;10.850;2023-01-29T00:21:24;22.63;;;15.53;;
8171;SDS011;4127;47.908;10.850;2023-01-29T00:23:50;21.10;;;14.50;;
8171;SDS011;4127;47.908;10.850;2023-01-29T00:26:20;21.67;;;14.47;;
8171;SDS011;4127;47.908;10.850;2023-01-29T00:28:47;21.67;;;15.33;;
8171;SDS011;4127;47.908;10.850;2023-01-29T00:31:15;21.63;;;15.10;;
8171;SDS011;4127;47.908;10.850;2023-01-29T00:33:44;19.43;;;14.40;;
8171;SDS011;4127;47.908;10.850;2023-01-29T00:36:11;18.37;;;14.30;;
8171;SDS011;4127;47.908;10.850;2023-01-29T00:38:39;17.53;;;12.30;;
8171;SDS011;4127;47.908;10.850;2023-01-29T00:41:13;15.07;;;11.70;;
8171;SDS011;4127;47.908;10.850;2023-01-29T00:43:59;15.87;;;12.00;;
8171;SDS011;4127;47.908;10.850;2023-01-29T00:46:45;16.27;;;11.43;;
8171;SDS011;4127;47.908;10.850;2023-01-29T00:49:12;14.03;;;11.40;;
8171;SDS011;4127;47.908;10.850;2023-01-29T00:51:39;14.87;;;10.90;;
8171;SDS011;4127;47.908;10.850;2023-01-29T00:54:05;16.23;;;12.07;;
8171;SDS011;4127;47.908;10.850;2023-01-29T00:56:33;16.20;;;11.70;;
8171;SDS011;4127;47.908;10.850;2023-01-29T00:59:02;16.40;;;11.90;;
8171;SDS011;4127;47.908;10.850;2023-01-29T01:01:29;16.17;;;12.33;;
8171;SDS011;4127;47.908;10.850;2023-01-29T01:04:14;16.57;;;13.23;;
8171;SDS011;4127;47.908;10.850;2023-01-29T01:06:41;16.90;;;12.03;;
8171;SDS011;4127;47.908;10.850;2023-01-29T01:09:09;16.73;;;12.60;;
8171;SDS011;4127;47.908;10.850;2023-01-29T01:11:54;16.73;;;12.43;;
8171;SDS011;4127;47.908;10.850;2023-01-29T01:14:21;15.73;;;11.60;;
8171;SDS011;4127;47.908;10.850;2023-01-29T01:16:48;15.57;;;11.50;;
8171;SDS011;4127;47.908;10.850;2023-01-29T01:19:14;13.70;;;10.47;;
8171;SDS011;4127;47.908;10.850;2023-01-29T01:21:42;14.60;;;11.93;;
8171;SDS011;4127;47.908;10.850;2023-01-29T01:24:11;16.63;;;12.67;;
8171;SDS011;4127;47.908;10.850;2023-01-29T01:26:38;16.07;;;11.70;;
8171;SDS011;4127;47.908;10.850;2023-01-29T01:29:05;14.10;;;10.47;;
8171;SDS011;4127;47.908;10.850;2023-01-29T01:31:32;14.77;;;11.37;;
8171;SDS011;4127;47.908;10.850;2023-01-29T01:33:58;16.20;;;11.60;;
8171;SDS011;4127;47.908;10.850;2023-01-29T01:36:25;19.57;;;13.23;;
8171;SDS011;4127;47.908;10.850;2023-01-29T01:38:52;18.27;;;13.37;;
8171;SDS011;4127;47.908;10.850;2023-01-29T01:41:23;21.60;;;14.20;;
8171;SDS011;4127;47.908;10.850;2023-01-29T01:44:48;20.30;;;13.70;;
8171;SDS011;4127;47.908;10.850;2023-01-29T01:47:29;21.27;;;14.23;;
8171;SDS011;4127;47.908;10.850;2023-01-29T01:50:45;21.93;;;14.43;;
8171;SDS011;4127;47.908;10.850;2023-01-29T01:54:04;20.03;;;13.20;;
8171;SDS011;4127;47.908;10.850;2023-01-29T01:56:44;18.50;;;14.57;;
8171;SDS011;4127;47.908;10.850;2023-01-29T01:59:37;17.67;;;13.83;;
8171;SDS011;4127;47.908;10.850;2023-01-29T02:02:14;18.20;;;13.53;;
8171;SDS011;4127;47.908;10.850;2023-01-29T02:05:06;17.23;;;12.30;;
8171;SDS011;4127;47.908;10.850;2023-01-29T02:08:01;18.40;;;12.43;;
8171;SDS011;4127;47.908;10.850;2023-01-29T02:11:00;18.90;;;13.40;;
8171;SDS011;4127;47.908;10.850;2023-01-29T02:13:48;19.67;;;13.87;;
8171;SDS011;4127;47.908;10.850;2023-01-29T02:17:16;18.50;;;13.30;;
8171;SDS011;4127;47.908;10.850;2023-01-29T02:20:00;20.67;;;14.37;;
8171;SDS011;4127;47.908;10.850;2023-01-29T02:26:45;20.43;;;14.70;;
8171;SDS011;4127;47.908;10.850;2023-01-29T02:30:08;21.07;;;14.97;;
8171;SDS011;4127;47.908;10.850;2023-01-29T02:33:30;21.53;;;14.07;;
8171;SDS011;4127;47.908;10.850;2023-01-29T02:40:17;17.40;;;12.93;;
8171;SDS011;4127;47.908;10.850;2023-01-29T02:43:20;19.40;;;13.93;;
8171;SDS011;4127;47.908;10.850;2023-01-29T02:46:38;15.53;;;12.67;;
8171;SDS011;4127;47.908;10.850;2023-01-29T02:49:35;18.53;;;13.30;;
8171;SDS011;4127;47.908;10.850;2023-01-29T02:55:47;17.30;;;12.17;;
8171;SDS011;4127;47.908;10.850;2023-01-29T02:59:20;16.70;;;12.23;;
8171;SDS011;4127;47.908;10.850;2023-01-29T03:02:00;14.93;;;10.93;;
8171;SDS011;4127;47.908;10.850;2023-01-29T03:05:04;15.70;;;11.47;;
8171;SDS011;4127;47.908;10.850;2023-01-29T03:07:45;14.63;;;11.07;;
8171;SDS011;4127;47.908;10.850;2023-01-29T03:10:30;14.87;;;11.50;;
8171;SDS011;4127;47.908;10.850;2023-01-29T03:13:07;13.97;;;11.13;;
8171;SDS011;4127;47.908;10.850;2023-01-29T03:16:36;17.23;;;11.60;;
8171;SDS011;4127;47.908;10.850;2023-01-29T03:20:12;16.00;;;11.67;;
8171;SDS011;4127;47.908;10.850;2023-01-29T03:22:37;15.10;;;11.37;;
8171;SDS011;4127;47.908;10.850;2023-01-29T03:25:09;15.67;;;11.93;;
8171;SDS011;4127;47.908;10.850;2023-01-29T03:28:15;16.53;;;11.77;;
8171;SDS011;4127;47.908;10.850;2023-01-29T03:31:08;17.67;;;12.33;;
8171;SDS011;4127;47.908;10.850;2023-01-29T03:34:25;17.10;;;12.67;;
8171;SDS011;4127;47.908;10.850;2023-01-29T03:40:10;15.47;;;11.90;;
8171;SDS011;4127;47.908;10.850;2023-01-29T03:42:49;18.10;;;12.97;;
8171;SDS011;4127;47.908;10.850;2023-01-29T03:45:45;15.57;;;12.17;;
8171;SDS011;4127;47.908;10.850;2023-01-29T03:52:18;17.80;;;12.77;;
8171;SDS011;4127;47.908;10.850;2023-01-29T04:07:24;16.17;;;12.43;;
8171;SDS011;4127;47.908;10.850;2023-01-29T04:10:14;16.93;;;11.57;;
8171;SDS011;4127;47.908;10.850;2023-01-29T04:12:54;15.37;;;11.37;;
8171;SDS011;4127;47.908;10.850;2023-01-29T04:15:31;16.70;;;11.70;;
8171;SDS011;4127;47.908;10.850;2023-01-29T04:18:09;18.30;;;13.37;;
8171;SDS011;4127;47.908;10.850;2023-01-29T04:20:38;16.77;;;13.20;;
8171;SDS011;4127;47.908;10.850;2023-01-29T04:23:06;17.40;;;13.40;;
8171;SDS011;4127;47.908;10.850;2023-01-29T04:25:45;18.83;;;13.87;;
8171;SDS011;4127;47.908;10.850;2023-01-29T04:28:46;20.03;;;13.23;;
8171;SDS011;4127;47.908;10.850;2023-01-29T04:31:23;18.67;;;14.40;;
8171;SDS011;4127;47.908;10.850;2023-01-29T04:40:19;17.50;;;13.50;;
8171;SDS011;4127;47.908;10.850;2023-01-29T04:43:13;19.60;;;14.67;;
8171;SDS011;4127;47.908;10.850;2023-01-29T04:46:11;22.03;;;15.83;;
8171;SDS011;4127;47.908;10.850;2023-01-29T04:48:50;20.87;;;16.20;;
8171;SDS011;4127;47.908;10.850;2023-01-29T04:51:29;21.17;;;16.07;;
8171;SDS011;4127;47.908;10.850;2023-01-29T04:57:02;18.37;;;13.90;;
8171;SDS011;4127;47.908;10.850;2023-01-29T04:59:46;24.23;;;16.70;;
8171;SDS011;4127;47.908;10.850;2023-01-29T05:02:27;24.80;;;18.67;;
8171;SDS011;4127;47.908;10.850;2023-01-29T05:05:04;25.37;;;18.10;;
8171;SDS011;4127;47.908;10.850;2023-01-29T05:07:36;27.30;;;18.77;;
8171;SDS011;4127;47.908;10.850;2023-01-29T05:10:07;22.37;;;16.90;;
8171;SDS011;4127;47.908;10.850;2023-01-29T05:12:42;25.33;;;18.27;;
8171;SDS011;4127;47.908;10.850;2023-01-29T05:15:16;21.77;;;16.63;;
8171;SDS011;4127;47.908;10.850;2023-01-29T05:17:49;24.80;;;18.83;;
8171;SDS011;4127;47.908;10.850;2023-01-29T05:20:51;23.40;;;16.97;;
8171;SDS011;4127;47.908;10.850;2023-01-29T05:23:36;25.87;;;18.43;;
8171;SDS011;4127;47.908;10.850;2023-01-29T05:26:23;26.77;;;18.97;;
8171;SDS011;4127;47.908;10.850;2023-01-29T05:29:25;25.10;;;18.43;;
8171;SDS011;4127;47.908;10.850;2023-01-29T05:31:58;27.90;;;20.33;;
8171;SDS011;4127;47.908;10.850;2023-01-29T05:34:56;24.43;;;17.97;;
8171;SDS011;4127;47.908;10.850;2023-01-29T05:37:29;23.37;;;17.90;;
8171;SDS011;4127;47.908;10.850;2023-01-29T05:40:30;24.40;;;16.40;;
8171;SDS011;4127;47.908;10.850;2023-01-29T05:43:18;24.27;;;17.40;;
8171;SDS011;4127;47.908;10.850;2023-01-29T05:46:13;25.30;;;18.40;;
8171;SDS011;4127;47.908;10.850;2023-01-29T05:48:51;22.93;;;16.97;;
8171;SDS011;4127;47.908;10.850;2023-01-29T05:51:43;23.57;;;18.23;;
8171;SDS011;4127;47.908;10.850;2023-01-29T05:54:45;24.87;;;16.63;;
8171;SDS011;4127;47.908;10.850;2023-01-29T05:57:27;19.53;;;14.50;;
8171;SDS011;4127;47.908;10.850;2023-01-29T06:00:03;21.43;;;15.57;;
8171;SDS011;4127;47.908;10.850;2023-01-29T06:02:44;21.93;;;15.03;;
8171;SDS011;4127;47.908;10.850;2023-01-29T06:05:29;18.20;;;13.97;;
8171;SDS011;4127;47.908;10.850;2023-01-29T06:08:02;18.83;;;14.37;;
8171;SDS011;4127;47.908;10.850;2023-01-29T06:10:38;20.03;;;14.83;;
8171;SDS011;4127;47.908;10.850;2023-01-29T06:13:22;18.93;;;15.17;;
8171;SDS011;4127;47.908;10.850;2023-01-29T06:15:55;19.70;;;14.60;;
8171;SDS011;4127;47.908;10.850;2023-01-29T06:18:25;20.93;;;15.53;;
8171;SDS011;4127;47.908;10.850;2023-01-29T06:20:59;19.60;;;15.37;;
8171;SDS011;4127;47.908;10.850;2023-01-29T06:23:56;15.97;;;12.50;;
8171;SDS011;4127;47.908;10.850;2023-01-29T06:26:40;18.60;;;13.80;;
8171;SDS011;4127;47.908;10.850;2023-01-29T06:29:10;17.43;;;13.43;;
8171;SDS011;4127;47.908;10.850;2023-01-29T06:31:46;18.10;;;13.33;;
8171;SDS011;4127;47.908;10.850;2023-01-29T06:34:17;17.00;;;13.30;;
8171;SDS011;4127;47.908;10.850;2023-01-29T06:36:44;16.33;;;12.27;;
8171;SDS011;4127;47.908;10.850;2023-01-29T06:39:11;15.87;;;11.57;;
8171;SDS011;4127;47.908;10.850;2023-01-29T06:41:38;13.50;;;10.67;;
8171;SDS011;4127;47.908;10.850;2023-01-29T06:44:20;15.73;;;11.70;;
8171;SDS011;4127;47.908;10.850;2023-01-29T06:46:48;15.20;;;11.43;;
8171;SDS011;4127;47.908;10.850;2023-01-29T06:49:24;12.07;;;9.90;;
8171;SDS011;4127;47.908;10.850;2023-01-29T06:51:51;13.00;;;10.10;;
8171;SDS011;4127;47.908;10.850;2023-01-29T06:54:27;16.17;;;11.33;;
8171;SDS011;4127;47.908;10.850;2023-01-29T06:57:00;13.43;;;10.80;;
8171;SDS011;4127;47.908;10.850;2023-01-29T06:59:56;13.87;;;10.73;;
8171;SDS011;4127;47.908;10.850;2023-01-29T07:02:26;14.50;;;10.70;;
8171;SDS011;4127;47.908;10.850;2023-01-29T07:05:05;14.57;;;11.17;;
8171;SDS011;4127;47.908;10.850;2023-01-29T07:08:16;14.23;;;10.90;;
8171;SDS011;4127;47.908;10.850;2023-01-29T07:10:50;13.20;;;10.00;;
8171;SDS011;4127;47.908;10.850;2023-01-29T07:13:37;11.73;;;9.30;;
8171;SDS011;4127;47.908;10.850;2023-01-29T07:16:04;11.77;;;10.00;;
8171;SDS011;4127;47.908;10.850;2023-01-29T07:18:51;12.80;;;9.57;;
8171;SDS011;4127;47.908;10.850;2023-01-29T07:21:26;10.83;;;8.80;;
8171;SDS011;4127;47.908;10.850;2023-01-29T07:23:55;11.73;;;8.77;;
8171;SDS011;4127;47.908;10.850;2023-01-29T07:26:22;9.60;;;8.20;;
8171;SDS011;4127;47.908;10.850;2023-01-29T07:28:50;10.57;;;8.30;;
8171;SDS011;4127;47.908;10.850;2023-01-29T07:31:18;13.17;;;9.67;;
8171;SDS011;4127;47.908;10.850;2023-01-29T07:33:45;12.73;;;9.33;;
8171;SDS011;4127;47.908;10.850;2023-01-29T07:36:16;10.17;;;8.60;;
8171;SDS011;4127;47.908;10.850;2023-01-29T07:38:43;11.97;;;9.87;;
8171;SDS011;4127;47.908;10.850;2023-01-29T07:41:13;12.80;;;9.60;;
8171;SDS011;4127;47.908;10.850;2023-01-29T07:43:40;11.90;;;9.13;;
8171;SDS011;4127;47.908;10.850;2023-01-29T07:46:07;11.10;;;8.90;;
8171;SDS011;4127;47.908;10.850;2023-01-29T07:48:34;11.80;;;8.97;;
8171;SDS011;4127;47.908;10.850;2023-01-29T07:51:01;12.37;;;9.13;;
8171;SDS011;4127;47.908;10.850;2023-01-29T07:53:28;12.20;;;9.73;;
8171;SDS011;4127;47.908;10.850;2023-01-29T07:55:55;14.23;;;11.40;;
8171;SDS011;4127;47.908;10.850;2023-01-29T07:58:22;14.20;;;10.47;;
8171;SDS011;4127;47.908;10.850;2023-01-29T08:00:49;12.53;;;9.93;;
8171;SDS011;4127;47.908;10.850;2023-01-29T08:03:16;12.30;;;9.33;;
8171;SDS011;4127;47.908;10.850;2023-01-29T08:05:45;11.17;;;9.20;;
8171;SDS011;4127;47.908;10.850;2023-01-29T08:08:12;11.57;;;9.60;;
8171;SDS011;4127;47.908;10.850;2023-01-29T08:10:39;10.70;;;8.30;;
8171;SDS011;4127;47.908;10.850;2023-01-29T08:13:07;9.87;;;8.27;;
8171;SDS011;4127;47.908;10.850;2023-01-29T08:15:33;8.13;;;7.00;;
8171;SDS011;4127;47.908;10.850;2023-01-29T08:18:04;8.00;;;6.23;;
8171;SDS011;4127;47.908;10.850;2023-01-29T08:20:31;8.87;;;7.27;;
8171;SDS011;4127;47.908;10.850;2023-01-29T08:23:02;9.00;;;7.57;;
8171;SDS011;4127;47.908;10.850;2023-01-29T08:25:31;8.10;;;6.83;;
8171;SDS011;4127;47.908;10.850;2023-01-29T08:27:58;8.47;;;7.03;;
8171;SDS011;4127;47.908;10.850;2023-01-29T08:30:26;8.90;;;6.87;;
8171;SDS011;4127;47.908;10.850;2023-01-29T08:32:55;6.67;;;5.83;;
8171;SDS011;4127;47.908;10.850;2023-01-29T08:35:22;6.80;;;5.80;;
8171;SDS011;4127;47.908;10.850;2023-01-29T08:37:55;8.00;;;6.00;;
8171;SDS011;4127;47.908;10.850;2023-01-29T08:40:24;7.73;;;6.30;;
8171;SDS011;4127;47.908;10.850;2023-01-29T08:42:56;8.47;;;6.40;;
8171;SDS011;4127;47.908;10.850;2023-01-29T08:45:28;7.83;;;6.33;;
8171;SDS011;4127;47.908;10.850;2023-01-29T08:47:55;7.87;;;6.80;;
8171;SDS011;4127;47.908;10.850;2023-01-29T08:50:22;7.83;;;6.30;;
8171;SDS011;4127;47.908;10.850;2023-01-29T08:52:56;9.93;;;8.03;;
8171;SDS011;4127;47.908;10.850;2023-01-29T08:55:24;12.63;;;9.67;;
8171;SDS011;4127;47.908;10.850;2023-01-29T08:57:51;10.37;;;7.67;;
8171;SDS011;4127;47.908;10.850;2023-01-29T09:00:19;9.10;;;7.47;;
8171;SDS011;4127;47.908;10.850;2023-01-29T09:02:46;7.53;;;6.73;;
8171;SDS011;4127;47.908;10.850;2023-01-29T09:05:12;8.80;;;6.70;;
8171;SDS011;4127;47.908;10.850;2023-01-29T09:07:40;10.13;;;7.23;;
8171;SDS011;4127;47.908;10.850;2023-01-29T09:10:07;8.90;;;7.97;;
8171;SDS011;4127;47.908;10.850;2023-01-29T09:12:34;9.80;;;8.13;;
8171;SDS011;4127;47.908;10.850;2023-01-29T09:15:01;9.20;;;7.90;;
8171;SDS011;4127;47.908;10.850;2023-01-29T09:17:28;10.73;;;9.10;;
8171;SDS011;4127;47.908;10.850;2023-01-29T09:19:54;9.37;;;8.30;;
8171;SDS011;4127;47.908;10.850;2023-01-29T09:22:21;10.17;;;8.17;;
8171;SDS011;4127;47.908;10.850;2023-01-29T09:24:48;9.03;;;7.07;;
8171;SDS011;4127;47.908;10.850;2023-01-29T09:27:14;9.10;;;7.10;;
8171;SDS011;4127;47.908;10.850;2023-01-29T09:29:41;9.87;;;8.37;;
8171;SDS011;4127;47.908;10.850;2023-01-29T09:32:08;8.17;;;7.17;;
8171;SDS011;4127;47.908;10.850;2023-01-29T09:34:35;6.20;;;5.57;;
8171;SDS011;4127;47.908;10.850;2023-01-29T09:37:01;7.07;;;5.90;;
8171;SDS011;4127;47.908;10.850;2023-01-29T09:39:28;7.33;;;6.43;;
8171;SDS011;4127;47.908;10.850;2023-01-29T09:41:57;8.37;;;6.63;;
8171;SDS011;4127;47.908;10.850;2023-01-29T09:45:01;7.27;;;6.40;;
8171;SDS011;4127;47.908;10.850;2023-01-29T09:47:36;10.10;;;8.10;;
8171;SDS011;4127;47.908;10.850;2023-01-29T09:50:07;7.97;;;6.70;;
8171;SDS011;4127;47.908;10.850;2023-01-29T09:52:39;7.37;;;6.30;;
8171;SDS011;4127;47.908;10.850;2023-01-29T09:55:13;7.40;;;6.37;;
8171;SDS011;4127;47.908;10.850;2023-01-29T09:57:51;9.57;;;6.90;;
8171;SDS011;4127;47.908;10.850;2023-01-29T10:00:22;9.03;;;8.03;;
8171;SDS011;4127;47.908;10.850;2023-01-29T10:08:47;8.43;;;7.47;;
8171;SDS011;4127;47.908;10.850;2023-01-29T10:16:45;8.03;;;6.70;;
8171;SDS011;4127;47.908;10.850;2023-01-29T10:22:27;7.97;;;6.70;;
8171;SDS011;4127;47.908;10.850;2023-01-29T10:25:05;7.53;;;6.43;;
8171;SDS011;4127;47.908;10.850;2023-01-29T10:27:37;7.20;;;6.10;;
8171;SDS011;4127;47.908;10.850;2023-01-29T10:30:07;7.80;;;6.40;;
8171;SDS011;4127;47.908;10.850;2023-01-29T10:41:04;7.90;;;6.33;;
8171;SDS011;4127;47.908;10.850;2023-01-29T10:46:25;6.47;;;5.60;;
8171;SDS011;4127;47.908;10.850;2023-01-29T10:49:23;8.60;;;6.43;;
8171;SDS011;4127;47.908;10.850;2023-01-29T10:57:37;7.63;;;6.50;;
8171;SDS011;4127;47.908;10.850;2023-01-29T11:00:21;7.23;;;6.23;;
8171;SDS011;4127;47.908;10.850;2023-01-29T11:02:50;7.57;;;6.27;;
8171;SDS011;4127;47.908;10.850;2023-01-29T11:05:34;7.03;;;6.00;;
8171;SDS011;4127;47.908;10.850;2023-01-29T11:08:13;7.83;;;6.93;;
8171;SDS011;4127;47.908;10.850;2023-01-29T11:11:06;8.60;;;7.70;;
8171;SDS011;4127;47.908;10.850;2023-01-29T11:14:03;9.43;;;7.20;;
8171;SDS011;4127;47.908;10.850;2023-01-29T11:16:45;8.63;;;7.03;;
8171;SDS011;4127;47.908;10.850;2023-01-29T11:19:13;7.47;;;6.43;;
8171;SDS011;4127;47.908;10.850;2023-01-29T11:21:58;8.10;;;7.20;;
8171;SDS011;4127;47.908;10.850;2023-01-29T11:24:26;8.40;;;6.70;;
8171;SDS011;4127;47.908;10.850;2023-01-29T11:26:54;11.83;;;9.40;;
8171;SDS011;4127;47.908;10.850;2023-01-29T11:32:04;8.03;;;7.03;;
8171;SDS011;4127;47.908;10.850;2023-01-29T11:34:33;8.10;;;6.97;;
8171;SDS011;4127;47.908;10.850;2023-01-29T11:37:01;8.80;;;7.33;;
8171;SDS011;4127;47.908;10.850;2023-01-29T11:39:30;8.33;;;7.27;;
8171;SDS011;4127;47.908;10.850;2023-01-29T11:42:00;7.20;;;6.50;;
8171;SDS011;4127;47.908;10.850;2023-01-29T11:44:33;7.47;;;6.57;;
8171;SDS011;4127;47.908;10.850;2023-01-29T11:49:50;7.50;;;6.57;;
8171;SDS011;4127;47.908;10.850;2023-01-29T11:52:20;7.43;;;6.70;;
8171;SDS011;4127;47.908;10.850;2023-01-29T11:55:05;8.77;;;7.70;;
8171;SDS011;4127;47.908;10.850;2023-01-29T11:57:42;7.97;;;6.90;;
8171;SDS011;4127;47.908;10.850;2023-01-29T12:00:21;7.37;;;6.57;;
8171;SDS011;4127;47.908;10.850;2023-01-29T12:03:14;8.37;;;7.13;;
8171;SDS011;4127;47.908;10.850;2023-01-29T12:05:54;8.23;;;6.90;;
8171;SDS011;4127;47.908;10.850;2023-01-29T12:08:30;10.77;;;8.27;;
8171;SDS011;4127;47.908;10.850;2023-01-29T12:11:07;8.50;;;6.90;;
8171;SDS011;4127;47.908;10.850;2023-01-29T12:13:35;8.27;;;7.43;;
8171;SDS011;4127;47.908;10.850;2023-01-29T12:16:22;7.30;;;6.60;;
8171;SDS011;4127;47.908;10.850;2023-01-29T12:19:13;10.30;;;8.57;;
8171;SDS011;4127;47.908;10.850;2023-01-29T12:22:09;10.70;;;8.40;;
8171;SDS011;4127;47.908;10.850;2023-01-29T12:32:56;8.30;;;7.00;;
8171;SDS011;4127;47.908;10.850;2023-01-29T12:49:39;8.20;;;7.37;;
8171;SDS011;4127;47.908;10.850;2023-01-29T12:52:09;8.20;;;7.40;;
8171;SDS011;4127;47.908;10.850;2023-01-29T12:54:57;9.17;;;8.00;;
8171;SDS011;4127;47.908;10.850;2023-01-29T12:57:56;8.23;;;7.23;;
8171;SDS011;4127;47.908;10.850;2023-01-29T13:05:51;8.33;;;7.50;;
8171;SDS011;4127;47.908;10.850;2023-01-29T13:08:22;9.53;;;7.90;;
8171;SDS011;4127;47.908;10.850;2023-01-29T13:11:29;8.20;;;7.17;;
8171;SDS011;4127;47.908;10.850;2023-01-29T13:14:08;8.27;;;7.03;;
8171;SDS011;4127;47.908;10.850;2023-01-29T13:16:48;7.10;;;6.40;;
8171;SDS011;4127;47.908;10.850;2023-01-29T13:19:20;7.67;;;6.70;;
8171;SDS011;4127;47.908;10.850;2023-01-29T13:27:25;8.80;;;7.90;;
8171;SDS011;4127;47.908;10.850;2023-01-29T13:38:02;8.97;;;7.47;;
8171;SDS011;4127;47.908;10.850;2023-01-29T13:45:43;8.10;;;7.30;;
8171;SDS011;4127;47.908;10.850;2023-01-29T13:50:55;9.47;;;8.47;;
8171;SDS011;4127;47.908;10.850;2023-01-29T13:53:28;7.30;;;6.53;;
8171;SDS011;4127;47.908;10.850;2023-01-29T13:59:01;9.57;;;8.57;;
8171;SDS011;4127;47.908;10.850;2023-01-29T14:06:45;15.50;;;12.60;;
8171;SDS011;4127;47.908;10.850;2023-01-29T14:17:15;15.47;;;11.60;;
8171;SDS011;4127;47.908;10.850;2023-01-29T14:19:50;12.93;;;10.57;;
8171;SDS011;4127;47.908;10.850;2023-01-29T14:22:22;10.73;;;9.63;;
8171;SDS011;4127;47.908;10.850;2023-01-29T14:24:56;10.97;;;9.00;;
8171;SDS011;4127;47.908;10.850;2023-01-29T14:27:27;10.70;;;9.60;;
8171;SDS011;4127;47.908;10.850;2023-01-29T14:29:58;11.23;;;9.93;;
8171;SDS011;4127;47.908;10.850;2023-01-29T14:32:27;14.07;;;11.43;;
8171;SDS011;4127;47.908;10.850;2023-01-29T14:34:58;15.70;;;11.57;;
8171;SDS011;4127;47.908;10.850;2023-01-29T14:37:31;17.70;;;12.83;;
8171;SDS011;4127;47.908;10.850;2023-01-29T14:42:38;11.67;;;9.77;;
8171;SDS011;4127;47.908;10.850;2023-01-29T14:48:18;11.57;;;9.37;;
8171;SDS011;4127;47.908;10.850;2023-01-29T14:53:46;10.80;;;9.60;;
8171;SDS011;4127;47.908;10.850;2023-01-29T14:59:42;13.53;;;11.50;;
8171;SDS011;4127;47.908;10.850;2023-01-29T15:02:17;18.43;;;14.07;;
8171;SDS011;4127;47.908;10.850;2023-01-29T15:08:12;20.80;;;16.20;;
8171;SDS011;4127;47.908;10.850;2023-01-29T15:10:18;21.30;;;15.70;;
8171;SDS011;4127;47.908;10.850;2023-01-29T15:13:01;20.03;;;13.83;;
8171;SDS011;4127;47.908;10.850;2023-01-29T15:18:15;11.10;;;9.30;;
8171;SDS011;4127;47.908;10.850;2023-01-29T15:39:16;11.40;;;10.13;;
8171;SDS011;4127;47.908;10.850;2023-01-29T15:46:59;15.67;;;13.90;;
8171;SDS011;4127;47.908;10.850;2023-01-29T15:57:36;14.10;;;11.17;;
8171;SDS011;4127;47.908;10.850;2023-01-29T16:05:33;15.77;;;13.73;;
8171;SDS011;4127;47.908;10.850;2023-01-29T16:10:26;19.97;;;15.67;;
8171;SDS011;4127;47.908;10.850;2023-01-29T16:17:50;41.57;;;25.47;;
8171;SDS011;4127;47.908;10.850;2023-01-29T16:20:29;31.60;;;20.23;;
8171;SDS011;4127;47.908;10.850;2023-01-29T16:22:56;20.37;;;16.07;;
8171;SDS011;4127;47.908;10.850;2023-01-29T16:25:24;22.30;;;16.70;;
8171;SDS011;4127;47.908;10.850;2023-01-29T16:30:33;20.20;;;16.43;;
8171;SDS011;4127;47.908;10.850;2023-01-29T16:33:00;22.53;;;16.47;;
8171;SDS011;4127;47.908;10.850;2023-01-29T16:35:29;23.77;;;17.43;;
8171;SDS011;4127;47.908;10.850;2023-01-29T16:38:00;23.87;;;17.27;;
8171;SDS011;4127;47.908;10.850;2023-01-29T16:40:38;22.70;;;17.23;;
8171;SDS011;4127;47.908;10.850;2023-01-29T16:43:44;20.77;;;16.37;;
8171;SDS011;4127;47.908;10.850;2023-01-29T16:46:19;29.23;;;21.00;;
8171;SDS011;4127;47.908;10.850;2023-01-29T16:48:52;25.57;;;19.00;;
8171;SDS011;4127;47.908;10.850;2023-01-29T16:53:52;13.27;;;11.30;;
8171;SDS011;4127;47.908;10.850;2023-01-29T16:56:28;15.77;;;13.37;;
8171;SDS011;4127;47.908;10.850;2023-01-29T17:01:40;11.27;;;9.43;;
8171;SDS011;4127;47.908;10.850;2023-01-29T17:06:54;12.77;;;10.67;;
8171;SDS011;4127;47.908;10.850;2023-01-29T17:14:53;19.13;;;16.10;;
8171;SDS011;4127;47.908;10.850;2023-01-29T17:19:51;14.90;;;11.77;;
8171;SDS011;4127;47.908;10.850;2023-01-29T17:24:46;17.00;;;12.23;;
8171;SDS011;4127;47.908;10.850;2023-01-29T17:27:19;17.90;;;13.20;;
8171;SDS011;4127;47.908;10.850;2023-01-29T17:29:47;17.57;;;14.07;;
8171;SDS011;4127;47.908;10.850;2023-01-29T17:32:15;20.60;;;14.67;;
8171;SDS011;4127;47.908;10.850;2023-01-29T17:34:44;20.43;;;13.93;;
8171;SDS011;4127;47.908;10.850;2023-01-29T17:37:13;18.00;;;12.93;;
8171;SDS011;4127;47.908;10.850;2023-01-29T17:39:41;19.30;;;13.47;;
8171;SDS011;4127;47.908;10.850;2023-01-29T17:42:12;19.43;;;13.90;;
8171;SDS011;4127;47.908;10.850;2023-01-29T17:44:41;19.73;;;14.13;;
8171;SDS011;4127;47.908;10.850;2023-01-29T17:47:10;17.07;;;13.67;;
8171;SDS011;4127;47.908;10.850;2023-01-29T17:49:39;16.70;;;12.30;;
8171;SDS011;4127;47.908;10.850;2023-01-29T17:52:07;15.43;;;12.53;;
8171;SDS011;4127;47.908;10.850;2023-01-29T17:54:34;16.03;;;12.33;;
8171;SDS011;4127;47.908;10.850;2023-01-29T17:57:01;13.97;;;11.20;;
8171;SDS011;4127;47.908;10.850;2023-01-29T17:59:28;14.10;;;11.50;;
8171;SDS011;4127;47.908;10.850;2023-01-29T18:01:57;15.23;;;12.63;;
8171;SDS011;4127;47.908;10.850;2023-01-29T18:04:24;15.77;;;12.93;;
8171;SDS011;4127;47.908;10.850;2023-01-29T18:06:51;20.10;;;14.70;;
8171;SDS011;4127;47.908;10.850;2023-01-29T18:09:19;19.47;;;14.50;;
8171;SDS011;4127;47.908;10.850;2023-01-29T18:11:47;18.57;;;13.50;;
8171;SDS011;4127;47.908;10.850;2023-01-29T18:14:15;18.70;;;12.70;;
8171;SDS011;4127;47.908;10.850;2023-01-29T18:16:43;15.63;;;11.90;;
8171;SDS011;4127;47.908;10.850;2023-01-29T18:19:20;16.93;;;13.00;;
8171;SDS011;4127;47.908;10.850;2023-01-29T18:21:52;15.00;;;12.27;;
8171;SDS011;4127;47.908;10.850;2023-01-29T18:24:19;13.97;;;11.57;;
8171;SDS011;4127;47.908;10.850;2023-01-29T18:26:46;14.93;;;11.80;;
8171;SDS011;4127;47.908;10.850;2023-01-29T18:29:14;16.50;;;12.30;;
8171;SDS011;4127;47.908;10.850;2023-01-29T18:34:23;14.77;;;11.03;;
8171;SDS011;4127;47.908;10.850;2023-01-29T18:41:57;16.03;;;11.93;;
8171;SDS011;4127;47.908;10.850;2023-01-29T18:44:24;15.90;;;11.87;;
8171;SDS011;4127;47.908;10.850;2023-01-29T18:49:16;16.50;;;11.63;;
8171;SDS011;4127;47.908;10.850;2023-01-29T18:51:43;17.20;;;12.33;;
8171;SDS011;4127;47.908;10.850;2023-01-29T19:02:24;15.63;;;12.90;;
8171;SDS011;4127;47.908;10.850;2023-01-29T19:09:56;15.97;;;11.97;;
8171;SDS011;4127;47.908;10.850;2023-01-29T19:14:51;17.83;;;12.53;;
8171;SDS011;4127;47.908;10.850;2023-01-29T19:17:17;17.07;;;12.27;;
8171;SDS011;4127;47.908;10.850;2023-01-29T19:19:45;17.57;;;12.83;;
8171;SDS011;4127;47.908;10.850;2023-01-29T19:22:12;17.07;;;12.33;;
8171;SDS011;4127;47.908;10.850;2023-01-29T19:24:38;16.03;;;11.87;;
8171;SDS011;4127;47.908;10.850;2023-01-29T19:27:06;15.93;;;12.40;;
8171;SDS011;4127;47.908;10.850;2023-01-29T19:29:33;15.90;;;12.23;;
8171;SDS011;4127;47.908;10.850;2023-01-29T19:31:59;16.90;;;12.77;;
8171;SDS011;4127;47.908;10.850;2023-01-29T19:34:26;15.77;;;12.90;;
8171;SDS011;4127;47.908;10.850;2023-01-29T19:36:53;16.67;;;12.23;;
8171;SDS011;4127;47.908;10.850;2023-01-29T19:39:20;15.53;;;11.50;;
8171;SDS011;4127;47.908;10.850;2023-01-29T19:41:47;15.47;;;11.73;;
8171;SDS011;4127;47.908;10.850;2023-01-29T19:44:13;13.97;;;10.97;;
8171;SDS011;4127;47.908;10.850;2023-01-29T19:46:40;14.53;;;11.30;;